sensor_id;sensor_type;location;lat;lon;timestamp;pressure;altitude;pressure_sealevel;temperature;humidity
13013;BME280;22580;57.670;12.006;2023-03-14T00:00:59;97377.91;;;16.61;87.83
13013;BME280;22580;57.670;12.006;2023-03-14T00:03:28;97380.78;;;16.18;89.20
13013;BME280;22580;57.670;12.006;2023-03-14T00:05:57;97372.56;;;16.13;88.58
13013;BME280;22580;57.670;12.006;2023-03-14T00:08:50;97266.47;;;14.86;90.65
13013;BME280;22580;57.670;12.006;2023-03-14T00:11:27;97395.47;;;15.86;90.63
13013;BME280;22580;57.670;12.006;2023-03-14T00:13:59;97382.91;;;15.80;90.15
13013;BME280;22580;57.670;12.006;2023-03-14T00:16:28;97375.84;;;15.60;90.03
13013;BME280;22580;57.670;12.006;2023-03-14T00:18:57;97312.28;;;14.98;90.76
13013;BME280;22580;57.670;12.006;2023-03-14T00:21:27;97349.09;;;15.84;89.66
13013;BME280;22580;57.670;12.006;2023-03-14T00:23:59;97404.38;;;16.04;89.43
13013;BME280;22580;57.670;12.006;2023-03-14T00:26:26;97409.38;;;16.19;89.25
13013;BME280;22580;57.670;12.006;2023-03-14T00:28:57;97388.34;;;16.10;88.83
13013;BME280;22580;57.670;12.006;2023-03-14T00:31:30;97416.25;;;15.79;90.22
13013;BME280;22580;57.670;12.006;2023-03-14T00:34:06;97394.84;;;15.22;91.68
13013;BME280;22580;57.670;12.006;2023-03-14T00:36:37;97413.22;;;15.50;91.75
13013;BME280;22580;57.670;12.006;2023-03-14T00:39:10;97387.97;;;15.26;91.76
13013;BME280;22580;57.670;12.006;2023-03-14T00:41:49;97421.88;;;15.77;91.17
13013;BME280;22580;57.670;12.006;2023-03-14T00:44:17;97415.72;;;15.70;90.16
13013;BME280;22580;57.670;12.006;2023-03-14T00:46:50;97421.66;;;16.33;88.54
13013;BME280;22580;57.670;12.006;2023-03-14T00:49:19;97443.63;;;15.76;90.35
13013;BME280;22580;57.670;12.006;2023-03-14T00:51:47;97431.28;;;15.43;91.33
13013;BME280;22580;57.670;12.006;2023-03-14T00:54:19;97449.03;;;15.26;91.28
13013;BME280;22580;57.670;12.006;2023-03-14T00:56:46;97430.13;;;15.32;91.42
13013;BME280;22580;57.670;12.006;2023-03-14T00:59:16;97401.69;;;15.18;90.44
13013;BME280;22580;57.670;12.006;2023-03-14T01:01:48;97380.91;;;15.50;88.30
13013;BME280;22580;57.670;12.006;2023-03-14T01:04:18;97455.69;;;15.91;88.50
13013;BME280;22580;57.670;12.006;2023-03-14T01:06:48;97456.38;;;16.23;87.30
13013;BME280;22580;57.670;12.006;2023-03-14T01:09:17;97460.56;;;16.01;87.70
13013;BME280;22580;57.670;12.006;2023-03-14T01:11:44;97452.19;;;16.09;86.68
13013;BME280;22580;57.670;12.006;2023-03-14T01:14:12;97481.75;;;16.16;86.33
13013;BME280;22580;57.670;12.006;2023-03-14T01:16:40;97448.19;;;15.25;89.51
13013;BME280;22580;57.670;12.006;2023-03-14T01:19:11;97457.72;;;15.28;88.51
13013;BME280;22580;57.670;12.006;2023-03-14T01:21:48;97487.88;;;15.61;88.31
13013;BME280;22580;57.670;12.006;2023-03-14T01:24:17;97487.41;;;15.89;86.60
13013;BME280;22580;57.670;12.006;2023-03-14T01:26:49;97498.13;;;15.96;86.39
13013;BME280;22580;57.670;12.006;2023-03-14T01:29:16;97486.03;;;15.80;86.30
13013;BME280;22580;57.670;12.006;2023-03-14T01:31:49;97500.50;;;15.86;85.61
13013;BME280;22580;57.670;12.006;2023-03-14T01:34:18;97485.31;;;15.91;84.82
13013;BME280;22580;57.670;12.006;2023-03-14T01:36:48;97505.88;;;15.86;84.33
13013;BME280;22580;57.670;12.006;2023-03-14T01:39:17;97493.28;;;16.23;83.72
13013;BME280;22580;57.670;12.006;2023-03-14T01:41:50;97495.59;;;16.37;82.59
13013;BME280;22580;57.670;12.006;2023-03-14T01:44:18;97489.16;;;16.02;82.88
13013;BME280;22580;57.670;12.006;2023-03-14T01:46:45;97506.09;;;15.84;83.33
13013;BME280;22580;57.670;12.006;2023-03-14T01:49:22;97510.88;;;15.82;83.42
13013;BME280;22580;57.670;12.006;2023-03-14T01:52:00;97519.09;;;15.37;85.27
13013;BME280;22580;57.670;12.006;2023-03-14T01:54:39;97514.72;;;15.43;84.59
13013;BME280;22580;57.670;12.006;2023-03-14T01:57:08;97518.63;;;15.47;84.61
13013;BME280;22580;57.670;12.006;2023-03-14T01:59:40;97506.03;;;15.41;84.19
13013;BME280;22580;57.670;12.006;2023-03-14T02:02:28;97514.38;;;15.01;85.23
13013;BME280;22580;57.670;12.006;2023-03-14T02:04:59;97482.97;;;15.52;83.04
13013;BME280;22580;57.670;12.006;2023-03-14T02:07:31;97443.63;;;15.01;83.42
13013;BME280;22580;57.670;12.006;2023-03-14T02:10:08;97525.94;;;15.02;83.91
13013;BME280;22580;57.670;12.006;2023-03-14T02:12:38;97527.63;;;15.34;83.22
13013;BME280;22580;57.670;12.006;2023-03-14T02:15:07;97509.78;;;15.65;81.69
13013;BME280;22580;57.670;12.006;2023-03-14T02:17:40;97449.06;;;15.19;81.61
13013;BME280;22580;57.670;12.006;2023-03-14T02:20:28;97450.91;;;14.94;82.26
13013;BME280;22580;57.670;12.006;2023-03-14T02:23:09;97502.59;;;14.96;82.99
13013;BME280;22580;57.670;12.006;2023-03-14T02:25:42;97517.03;;;15.08;83.55
13013;BME280;22580;57.670;12.006;2023-03-14T02:28:17;97427.34;;;14.89;82.56
13013;BME280;22580;57.670;12.006;2023-03-14T02:30:47;97516.19;;;15.39;81.76
13013;BME280;22580;57.670;12.006;2023-03-14T02:33:18;97505.38;;;15.46;81.83
13013;BME280;22580;57.670;12.006;2023-03-14T02:35:53;97475.28;;;14.67;83.04
13013;BME280;22580;57.670;12.006;2023-03-14T02:38:30;97506.97;;;15.28;82.29
13013;BME280;22580;57.670;12.006;2023-03-14T02:41:11;97517.63;;;15.41;81.26
13013;BME280;22580;57.670;12.006;2023-03-14T02:43:39;97516.00;;;14.71;83.26
13013;BME280;22580;57.670;12.006;2023-03-14T02:46:10;97514.22;;;15.53;80.64
13013;BME280;22580;57.670;12.006;2023-03-14T02:48:51;97521.47;;;15.59;80.03
13013;BME280;22580;57.670;12.006;2023-03-14T02:51:30;97363.25;;;13.78;82.52
13013;BME280;22580;57.670;12.006;2023-03-14T02:53:58;97466.47;;;14.85;81.49
13013;BME280;22580;57.670;12.006;2023-03-14T02:56:27;97458.59;;;15.22;80.30
13013;BME280;22580;57.670;12.006;2023-03-14T02:58:57;97504.88;;;14.61;83.08
13013;BME280;22580;57.670;12.006;2023-03-14T03:01:27;97405.47;;;14.54;81.18
13013;BME280;22580;57.670;12.006;2023-03-14T03:04:00;97518.41;;;15.49;80.38
13013;BME280;22580;57.670;12.006;2023-03-14T03:06:39;97532.44;;;15.57;79.69
13013;BME280;22580;57.670;12.006;2023-03-14T03:09:08;97425.72;;;14.88;79.43
13013;BME280;22580;57.670;12.006;2023-03-14T03:11:38;97534.13;;;15.77;78.49
13013;BME280;22580;57.670;12.006;2023-03-14T03:14:15;97475.06;;;14.69;80.54
13013;BME280;22580;57.670;12.006;2023-03-14T03:16:46;97525.31;;;15.06;80.36
13013;BME280;22580;57.670;12.006;2023-03-14T03:19:29;97433.81;;;14.82;79.34
13013;BME280;22580;57.670;12.006;2023-03-14T03:21:58;97523.25;;;15.65;78.91
13013;BME280;22580;57.670;12.006;2023-03-14T03:24:25;97504.97;;;15.17;78.44
13013;BME280;22580;57.670;12.006;2023-03-14T03:26:56;97516.41;;;15.37;78.32
13013;BME280;22580;57.670;12.006;2023-03-14T03:29:28;97507.69;;;15.11;78.86
13013;BME280;22580;57.670;12.006;2023-03-14T03:31:57;97507.19;;;15.52;77.65
13013;BME280;22580;57.670;12.006;2023-03-14T03:34:30;97528.34;;;15.48;78.10
13013;BME280;22580;57.670;12.006;2023-03-14T03:36:58;97466.63;;;14.97;78.17
13013;BME280;22580;57.670;12.006;2023-03-14T03:39:27;97524.72;;;15.36;78.31
13013;BME280;22580;57.670;12.006;2023-03-14T03:41:54;97539.25;;;15.28;78.66
13013;BME280;22580;57.670;12.006;2023-03-14T03:44:26;97533.28;;;15.20;78.79
13013;BME280;22580;57.670;12.006;2023-03-14T03:46:59;97550.44;;;14.87;80.23
13013;BME280;22580;57.670;12.006;2023-03-14T03:49:28;97530.50;;;14.63;80.24
13013;BME280;22580;57.670;12.006;2023-03-14T03:51:55;97553.34;;;14.86;80.21
13013;BME280;22580;57.670;12.006;2023-03-14T03:54:22;97555.81;;;14.87;80.32
13013;BME280;22580;57.670;12.006;2023-03-14T03:56:59;97498.91;;;14.59;80.59
13013;BME280;22580;57.670;12.006;2023-03-14T03:59:30;97558.97;;;15.16;79.59
13013;BME280;22580;57.670;12.006;2023-03-14T04:01:57;97541.28;;;14.95;79.23
13013;BME280;22580;57.670;12.006;2023-03-14T04:04:35;97546.56;;;15.15;78.88
13013;BME280;22580;57.670;12.006;2023-03-14T04:07:07;97449.41;;;14.22;79.85
13013;BME280;22580;57.670;12.006;2023-03-14T04:09:38;97501.00;;;14.88;78.79
13013;BME280;22580;57.670;12.006;2023-03-14T04:12:07;97539.91;;;15.24;78.96
13013;BME280;22580;57.670;12.006;2023-03-14T04:14:38;97543.44;;;15.18;78.83
13013;BME280;22580;57.670;12.006;2023-03-14T04:17:09;97480.72;;;14.92;77.99
13013;BME280;22580;57.670;12.006;2023-03-14T04:19:38;97551.25;;;15.26;78.01
13013;BME280;22580;57.670;12.006;2023-03-14T04:22:07;97566.28;;;15.40;77.63
13013;BME280;22580;57.670;12.006;2023-03-14T04:24:38;97540.47;;;15.32;76.77
13013;BME280;22580;57.670;12.006;2023-03-14T04:27:07;97545.88;;;15.26;77.35
13013;BME280;22580;57.670;12.006;2023-03-14T04:29:38;97546.72;;;15.26;77.57
13013;BME280;22580;57.670;12.006;2023-03-14T04:32:05;97527.88;;;14.88;78.85
13013;BME280;22580;57.670;12.006;2023-03-14T04:34:40;97473.97;;;14.76;77.45
13013;BME280;22580;57.670;12.006;2023-03-14T04:37:11;97559.13;;;15.27;77.66
13013;BME280;22580;57.670;12.006;2023-03-14T04:39:46;97573.44;;;15.53;76.81
13013;BME280;22580;57.670;12.006;2023-03-14T04:42:13;97547.63;;;15.45;76.47
13013;BME280;22580;57.670;12.006;2023-03-14T04:44:47;97574.19;;;15.66;75.49
13013;BME280;22580;57.670;12.006;2023-03-14T04:47:18;97585.25;;;15.52;76.25
13013;BME280;22580;57.670;12.006;2023-03-14T04:49:48;97587.88;;;15.27;76.96
13013;BME280;22580;57.670;12.006;2023-03-14T04:52:16;97570.22;;;14.61;79.62
13013;BME280;22580;57.670;12.006;2023-03-14T04:54:46;97590.66;;;14.69;80.73
13013;BME280;22580;57.670;12.006;2023-03-14T04:57:18;97589.88;;;14.49;81.82
13013;BME280;22580;57.670;12.006;2023-03-14T04:59:58;97572.97;;;14.86;80.55
13013;BME280;22580;57.670;12.006;2023-03-14T05:02:31;97518.28;;;14.67;79.39
13013;BME280;22580;57.670;12.006;2023-03-14T05:05:08;97493.22;;;14.73;78.95
13013;BME280;22580;57.670;12.006;2023-03-14T05:07:41;97572.94;;;15.37;77.54
13013;BME280;22580;57.670;12.006;2023-03-14T05:10:19;97600.97;;;15.55;77.27
13013;BME280;22580;57.670;12.006;2023-03-14T05:12:47;97578.44;;;15.11;77.89
13013;BME280;22580;57.670;12.006;2023-03-14T05:15:18;97595.66;;;15.41;76.82
13013;BME280;22580;57.670;12.006;2023-03-14T05:17:47;97609.69;;;15.50;76.56
13013;BME280;22580;57.670;12.006;2023-03-14T05:20:28;97616.44;;;15.66;75.82
13013;BME280;22580;57.670;12.006;2023-03-14T05:23:01;97517.53;;;14.92;75.63
13013;BME280;22580;57.670;12.006;2023-03-14T05:25:39;97538.50;;;15.15;75.02
13013;BME280;22580;57.670;12.006;2023-03-14T05:28:08;97541.16;;;15.21;74.33
13013;BME280;22580;57.670;12.006;2023-03-14T05:30:39;97617.84;;;14.92;76.23
13013;BME280;22580;57.670;12.006;2023-03-14T05:33:08;97549.72;;;14.67;76.21
13013;BME280;22580;57.670;12.006;2023-03-14T05:35:38;97620.59;;;15.24;75.58
13013;BME280;22580;57.670;12.006;2023-03-14T05:38:08;97618.19;;;14.38;78.50
13013;BME280;22580;57.670;12.006;2023-03-14T05:40:38;97566.94;;;14.46;77.13
13013;BME280;22580;57.670;12.006;2023-03-14T05:43:10;97611.41;;;15.00;76.43
13013;BME280;22580;57.670;12.006;2023-03-14T05:45:49;97621.66;;;15.23;76.25
13013;BME280;22580;57.670;12.006;2023-03-14T05:48:18;97612.25;;;14.94;76.60
13013;BME280;22580;57.670;12.006;2023-03-14T05:50:48;97542.56;;;14.48;77.07
13013;BME280;22580;57.670;12.006;2023-03-14T05:53:19;97599.19;;;14.39;78.84
13013;BME280;22580;57.670;12.006;2023-03-14T05:55:51;97603.53;;;14.34;79.27
13013;BME280;22580;57.670;12.006;2023-03-14T05:58:19;97612.59;;;14.39;79.12
13013;BME280;22580;57.670;12.006;2023-03-14T06:00:50;97625.22;;;14.52;79.75
13013;BME280;22580;57.670;12.006;2023-03-14T06:03:18;97625.19;;;14.65;78.80
13013;BME280;22580;57.670;12.006;2023-03-14T06:05:49;97614.69;;;14.51;79.03
13013;BME280;22580;57.670;12.006;2023-03-14T06:08:19;97619.00;;;14.38;79.79
13013;BME280;22580;57.670;12.006;2023-03-14T06:10:49;97636.69;;;14.86;78.99
13013;BME280;22580;57.670;12.006;2023-03-14T06:13:20;97646.56;;;14.98;78.30
13013;BME280;22580;57.670;12.006;2023-03-14T06:15:50;97663.31;;;15.00;77.64
13013;BME280;22580;57.670;12.006;2023-03-14T06:18:19;97571.66;;;14.57;77.02
13013;BME280;22580;57.670;12.006;2023-03-14T06:20:47;97652.06;;;15.23;77.00
13013;BME280;22580;57.670;12.006;2023-03-14T06:23:20;97649.91;;;14.94;77.08
13013;BME280;22580;57.670;12.006;2023-03-14T06:25:49;97651.75;;;15.00;76.49
13013;BME280;22580;57.670;12.006;2023-03-14T06:28:18;97582.31;;;14.84;75.78
13013;BME280;22580;57.670;12.006;2023-03-14T06:30:47;97641.31;;;14.65;77.96
13013;BME280;22580;57.670;12.006;2023-03-14T06:33:16;97656.09;;;15.01;77.57
13013;BME280;22580;57.670;12.006;2023-03-14T06:35:55;97656.44;;;14.60;77.93
13013;BME280;22580;57.670;12.006;2023-03-14T06:38:32;97543.03;;;14.05;77.00
13013;BME280;22580;57.670;12.006;2023-03-14T06:41:08;97660.44;;;14.95;76.83
13013;BME280;22580;57.670;12.006;2023-03-14T06:43:39;97665.84;;;14.89;76.83
13013;BME280;22580;57.670;12.006;2023-03-14T06:46:08;97653.78;;;15.04;76.11
13013;BME280;22580;57.670;12.006;2023-03-14T06:48:40;97610.31;;;14.63;76.33
13013;BME280;22580;57.670;12.006;2023-03-14T06:51:08;97564.91;;;14.08;76.76
13013;BME280;22580;57.670;12.006;2023-03-14T06:53:37;97676.88;;;14.34;79.28
13013;BME280;22580;57.670;12.006;2023-03-14T06:56:18;97672.56;;;14.47;78.80
13013;BME280;22580;57.670;12.006;2023-03-14T06:58:48;97691.78;;;14.43;79.19
13013;BME280;22580;57.670;12.006;2023-03-14T07:01:21;97615.72;;;13.51;80.74
13013;BME280;22580;57.670;12.006;2023-03-14T07:03:56;97674.81;;;14.36;79.44
13013;BME280;22580;57.670;12.006;2023-03-14T07:06:26;97655.41;;;14.48;79.46
13013;BME280;22580;57.670;12.006;2023-03-14T07:09:02;97706.00;;;14.77;78.00
13013;BME280;22580;57.670;12.006;2023-03-14T07:11:39;97700.47;;;14.59;79.49
13013;BME280;22580;57.670;12.006;2023-03-14T07:14:12;97620.50;;;13.95;79.67
13013;BME280;22580;57.670;12.006;2023-03-14T07:16:52;97707.47;;;14.07;80.42
13013;BME280;22580;57.670;12.006;2023-03-14T07:19:30;97694.63;;;13.69;80.82
13013;BME280;22580;57.670;12.006;2023-03-14T07:21:59;97727.56;;;14.51;79.63
13013;BME280;22580;57.670;12.006;2023-03-14T07:24:27;97587.25;;;13.96;77.53
13013;BME280;22580;57.670;12.006;2023-03-14T07:26:54;97736.59;;;14.76;78.03
13013;BME280;22580;57.670;12.006;2023-03-14T07:29:29;97717.63;;;14.58;78.04
13013;BME280;22580;57.670;12.006;2023-03-14T07:31:58;97723.13;;;14.96;76.88
13013;BME280;22580;57.670;12.006;2023-03-14T07:34:32;97631.84;;;14.36;74.73
13013;BME280;22580;57.670;12.006;2023-03-14T07:37:10;97714.44;;;15.00;75.23
13013;BME280;22580;57.670;12.006;2023-03-14T07:39:37;97738.63;;;15.00;75.71
13013;BME280;22580;57.670;12.006;2023-03-14T07:42:04;97631.22;;;14.48;74.74
13013;BME280;22580;57.670;12.006;2023-03-14T07:44:38;97742.59;;;14.25;75.46
13013;BME280;22580;57.670;12.006;2023-03-14T07:47:06;97712.44;;;14.17;76.59
13013;BME280;22580;57.670;12.006;2023-03-14T07:49:36;97739.28;;;14.17;77.68
13013;BME280;22580;57.670;12.006;2023-03-14T07:52:04;97719.25;;;14.39;77.65
13013;BME280;22580;57.670;12.006;2023-03-14T07:54:31;97719.69;;;14.42;77.62
13013;BME280;22580;57.670;12.006;2023-03-14T07:56:58;97741.41;;;14.54;80.77
13013;BME280;22580;57.670;12.006;2023-03-14T07:59:28;97749.16;;;15.08;79.69
13013;BME280;22580;57.670;12.006;2023-03-14T08:01:55;97751.81;;;15.28;80.17
13013;BME280;22580;57.670;12.006;2023-03-14T08:04:22;97736.06;;;15.32;78.51
13013;BME280;22580;57.670;12.006;2023-03-14T08:06:58;97699.03;;;15.27;78.94
13013;BME280;22580;57.670;12.006;2023-03-14T08:09:32;97761.00;;;14.88;80.84
13013;BME280;22580;57.670;12.006;2023-03-14T08:12:02;97768.56;;;15.30;76.35
13013;BME280;22580;57.670;12.006;2023-03-14T08:14:49;97778.56;;;14.90;76.87
13013;BME280;22580;57.670;12.006;2023-03-14T08:17:19;97750.47;;;14.80;76.54
13013;BME280;22580;57.670;12.006;2023-03-14T08:19:48;97668.22;;;14.26;76.95
13013;BME280;22580;57.670;12.006;2023-03-14T08:22:17;97777.34;;;14.93;76.86
13013;BME280;22580;57.670;12.006;2023-03-14T08:24:46;97787.28;;;14.86;77.78
13013;BME280;22580;57.670;12.006;2023-03-14T08:27:13;97784.38;;;14.81;77.02
13013;BME280;22580;57.670;12.006;2023-03-14T08:29:40;97774.84;;;14.25;78.43
13013;BME280;22580;57.670;12.006;2023-03-14T08:32:08;97754.44;;;14.70;77.83
13013;BME280;22580;57.670;12.006;2023-03-14T08:34:35;97753.75;;;14.88;77.63
13013;BME280;22580;57.670;12.006;2023-03-14T08:37:02;97773.41;;;14.95;77.38
13013;BME280;22580;57.670;12.006;2023-03-14T08:39:32;97771.13;;;14.79;77.95
13013;BME280;22580;57.670;12.006;2023-03-14T08:42:08;97637.03;;;13.72;77.35
13013;BME280;22580;57.670;12.006;2023-03-14T08:44:41;97776.94;;;14.76;77.02
13013;BME280;22580;57.670;12.006;2023-03-14T08:47:08;97758.53;;;13.46;78.77
13013;BME280;22580;57.670;12.006;2023-03-14T08:49:41;97812.13;;;14.68;78.15
13013;BME280;22580;57.670;12.006;2023-03-14T08:52:09;97783.94;;;15.03;76.50
13013;BME280;22580;57.670;12.006;2023-03-14T08:54:40;97787.66;;;15.09;76.07
13013;BME280;22580;57.670;12.006;2023-03-14T08:57:09;97809.19;;;14.83;74.78
13013;BME280;22580;57.670;12.006;2023-03-14T08:59:36;97837.13;;;14.88;73.45
13013;BME280;22580;57.670;12.006;2023-03-14T09:02:11;97816.41;;;15.15;72.14
13013;BME280;22580;57.670;12.006;2023-03-14T09:04:38;97819.53;;;14.92;71.45
13013;BME280;22580;57.670;12.006;2023-03-14T09:07:05;97818.81;;;15.50;70.99
13013;BME280;22580;57.670;12.006;2023-03-14T09:09:40;97808.59;;;14.67;71.13
13013;BME280;22580;57.670;12.006;2023-03-14T09:12:10;97719.28;;;14.59;70.46
13013;BME280;22580;57.670;12.006;2023-03-14T09:14:39;97806.72;;;14.48;67.66
13013;BME280;22580;57.670;12.006;2023-03-14T09:17:08;97834.22;;;14.43;69.79
13013;BME280;22580;57.670;12.006;2023-03-14T09:19:35;97818.22;;;14.22;67.76
13013;BME280;22580;57.670;12.006;2023-03-14T09:22:02;97831.88;;;13.25;69.19
13013;BME280;22580;57.670;12.006;2023-03-14T09:24:41;97841.53;;;13.54;69.36
13013;BME280;22580;57.670;12.006;2023-03-14T09:27:08;97792.41;;;13.54;67.02
13013;BME280;22580;57.670;12.006;2023-03-14T09:32:42;97677.41;;;13.37;64.36
13013;BME280;22580;57.670;12.006;2023-03-14T09:35:19;97829.16;;;14.14;64.25
13013;BME280;22580;57.670;12.006;2023-03-14T09:37:47;97840.97;;;13.65;64.49
13013;BME280;22580;57.670;12.006;2023-03-14T09:40:20;97862.72;;;13.77;64.54
13013;BME280;22580;57.670;12.006;2023-03-14T09:42:50;97849.50;;;14.43;62.07
13013;BME280;22580;57.670;12.006;2023-03-14T09:45:26;97884.22;;;13.90;61.19
13013;BME280;22580;57.670;12.006;2023-03-14T09:47:56;97889.13;;;14.34;60.77
13013;BME280;22580;57.670;12.006;2023-03-14T09:50:30;97887.78;;;14.78;60.70
13013;BME280;22580;57.670;12.006;2023-03-14T09:53:03;97893.16;;;14.58;59.80
13013;BME280;22580;57.670;12.006;2023-03-14T09:55:39;97896.88;;;14.51;57.39
13013;BME280;22580;57.670;12.006;2023-03-14T09:58:11;97891.97;;;14.13;59.69
13013;BME280;22580;57.670;12.006;2023-03-14T10:00:38;97899.59;;;14.97;58.54
13013;BME280;22580;57.670;12.006;2023-03-14T10:03:25;97910.75;;;14.74;55.44
13013;BME280;22580;57.670;12.006;2023-03-14T10:06:08;97917.56;;;14.63;55.40
13013;BME280;22580;57.670;12.006;2023-03-14T10:08:39;97920.28;;;14.70;55.73
13013;BME280;22580;57.670;12.006;2023-03-14T10:11:18;97922.34;;;14.94;55.16
13013;BME280;22580;57.670;12.006;2023-03-14T10:14:02;97923.94;;;14.42;55.26
13013;BME280;22580;57.670;12.006;2023-03-14T10:16:34;97937.44;;;14.89;55.15
13013;BME280;22580;57.670;12.006;2023-03-14T10:19:03;97949.25;;;15.07;53.74
13013;BME280;22580;57.670;12.006;2023-03-14T10:21:36;97953.34;;;14.77;54.48
13013;BME280;22580;57.670;12.006;2023-03-14T10:24:10;97951.53;;;15.17;52.74
13013;BME280;22580;57.670;12.006;2023-03-14T10:26:52;97967.81;;;14.76;53.16
13013;BME280;22580;57.670;12.006;2023-03-14T10:29:29;97881.38;;;14.59;52.79
13013;BME280;22580;57.670;12.006;2023-03-14T10:32:01;97973.63;;;14.86;52.85
13013;BME280;22580;57.670;12.006;2023-03-14T10:34:33;97973.00;;;14.84;53.31
13013;BME280;22580;57.670;12.006;2023-03-14T10:37:21;97876.63;;;14.74;52.00
13013;BME280;22580;57.670;12.006;2023-03-14T10:39:49;97969.75;;;15.08;50.22
13013;BME280;22580;57.670;12.006;2023-03-14T10:42:23;97991.72;;;15.32;51.02
13013;BME280;22580;57.670;12.006;2023-03-14T10:44:58;97975.13;;;14.34;53.26
13013;BME280;22580;57.670;12.006;2023-03-14T10:47:28;97996.13;;;14.59;54.90
13013;BME280;22580;57.670;12.006;2023-03-14T10:50:30;97919.00;;;14.59;52.04
13013;BME280;22580;57.670;12.006;2023-03-14T10:53:01;97994.00;;;15.68;49.08
13013;BME280;22580;57.670;12.006;2023-03-14T10:55:39;97987.94;;;14.93;51.81
13013;BME280;22580;57.670;12.006;2023-03-14T10:58:20;97995.03;;;15.40;50.66
13013;BME280;22580;57.670;12.006;2023-03-14T11:00:53;98005.56;;;15.88;49.56
13013;BME280;22580;57.670;12.006;2023-03-14T11:03:26;97991.72;;;15.25;48.53
13013;BME280;22580;57.670;12.006;2023-03-14T11:06:06;98009.50;;;15.99;48.82
13013;BME280;22580;57.670;12.006;2023-03-14T11:08:43;97925.88;;;14.95;48.63
13013;BME280;22580;57.670;12.006;2023-03-14T11:11:20;98010.63;;;14.77;48.66
13013;BME280;22580;57.670;12.006;2023-03-14T11:14:00;97961.38;;;14.51;49.65
13013;BME280;22580;57.670;12.006;2023-03-14T11:16:34;97932.16;;;13.93;50.53
13013;BME280;22580;57.670;12.006;2023-03-14T11:19:20;98048.66;;;15.42;50.25
13013;BME280;22580;57.670;12.006;2023-03-14T11:22:07;98039.47;;;15.03;49.52
13013;BME280;22580;57.670;12.006;2023-03-14T11:28:00;97983.44;;;15.40;47.90
13013;BME280;22580;57.670;12.006;2023-03-14T11:31:03;97986.06;;;14.94;47.60
13013;BME280;22580;57.670;12.006;2023-03-14T11:33:51;98070.00;;;15.63;48.48
13013;BME280;22580;57.670;12.006;2023-03-14T11:36:43;98059.25;;;14.76;47.96
13013;BME280;22580;57.670;12.006;2023-03-14T11:39:29;98054.31;;;13.12;51.50
13013;BME280;22580;57.670;12.006;2023-03-14T11:42:11;98080.81;;;14.41;50.37
13013;BME280;22580;57.670;12.006;2023-03-14T11:44:50;98066.06;;;14.03;49.56
13013;BME280;22580;57.670;12.006;2023-03-14T11:47:23;98093.69;;;14.53;49.01
13013;BME280;22580;57.670;12.006;2023-03-14T11:50:03;98074.69;;;15.22;47.14
13013;BME280;22580;57.670;12.006;2023-03-14T11:52:50;98066.78;;;15.00;48.16
13013;BME280;22580;57.670;12.006;2023-03-14T11:55:28;98114.50;;;14.16;49.10
13013;BME280;22580;57.670;12.006;2023-03-14T11:58:02;98036.72;;;13.67;49.10
13013;BME280;22580;57.670;12.006;2023-03-14T12:00:42;98085.66;;;13.48;52.06
13013;BME280;22580;57.670;12.006;2023-03-14T12:03:42;98013.16;;;13.97;51.20
13013;BME280;22580;57.670;12.006;2023-03-14T12:06:21;98124.50;;;14.01;51.99
13013;BME280;22580;57.670;12.006;2023-03-14T12:09:21;97982.03;;;13.19;50.65
13013;BME280;22580;57.670;12.006;2023-03-14T12:12:01;98082.66;;;13.57;52.90
13013;BME280;22580;57.670;12.006;2023-03-14T12:14:54;98090.78;;;13.06;55.25
13013;BME280;22580;57.670;12.006;2023-03-14T12:17:52;98062.22;;;14.12;54.94
13013;BME280;22580;57.670;12.006;2023-03-14T12:20:51;98132.50;;;15.46;53.57
13013;BME280;22580;57.670;12.006;2023-03-14T12:23:42;98151.84;;;15.08;48.95
13013;BME280;22580;57.670;12.006;2023-03-14T12:26:17;98132.59;;;15.04;50.02
13013;BME280;22580;57.670;12.006;2023-03-14T12:28:50;98146.44;;;14.32;49.72
13013;BME280;22580;57.670;12.006;2023-03-14T12:31:38;98163.53;;;15.35;49.24
13013;BME280;22580;57.670;12.006;2023-03-14T12:34:32;98186.88;;;14.46;50.05
13013;BME280;22580;57.670;12.006;2023-03-14T12:37:30;98175.78;;;14.06;51.38
13013;BME280;22580;57.670;12.006;2023-03-14T12:40:10;98168.88;;;13.69;52.21
13013;BME280;22580;57.670;12.006;2023-03-14T12:43:02;98092.63;;;12.85;51.77
13013;BME280;22580;57.670;12.006;2023-03-14T12:45:39;98137.16;;;12.86;53.97
13013;BME280;22580;57.670;12.006;2023-03-14T12:48:11;98183.63;;;13.22;53.08
13013;BME280;22580;57.670;12.006;2023-03-14T12:51:00;98190.81;;;14.00;52.82
13013;BME280;22580;57.670;12.006;2023-03-14T12:56:46;98212.25;;;14.64;53.23
13013;BME280;22580;57.670;12.006;2023-03-14T12:59:34;98220.16;;;15.14;52.94
13013;BME280;22580;57.670;12.006;2023-03-14T13:02:17;98223.41;;;15.02;52.68
13013;BME280;22580;57.670;12.006;2023-03-14T13:04:59;98215.22;;;15.71;51.50
13013;BME280;22580;57.670;12.006;2023-03-14T13:07:33;98229.97;;;15.89;49.48
13013;BME280;22580;57.670;12.006;2023-03-14T13:10:22;98158.44;;;15.66;49.99
13013;BME280;22580;57.670;12.006;2023-03-14T13:13:02;98247.50;;;15.65;47.28
13013;BME280;22580;57.670;12.006;2023-03-14T13:15:41;98246.25;;;15.13;47.88
13013;BME280;22580;57.670;12.006;2023-03-14T13:18:11;98232.88;;;14.92;48.62
13013;BME280;22580;57.670;12.006;2023-03-14T13:20:45;98265.91;;;14.51;49.40
13013;BME280;22580;57.670;12.006;2023-03-14T13:23:23;98257.91;;;15.27;48.61
13013;BME280;22580;57.670;12.006;2023-03-14T13:26:13;98255.22;;;14.58;49.17
13013;BME280;22580;57.670;12.006;2023-03-14T13:28:48;98265.69;;;14.81;49.94
13013;BME280;22580;57.670;12.006;2023-03-14T13:31:22;98256.44;;;14.55;49.15
13013;BME280;22580;57.670;12.006;2023-03-14T13:33:59;98277.03;;;13.48;51.75